Houston, Missouri
Current Conditions -  °F | °C
As of 2:58 AM on Monday 20 Oct 2014 (Local Time) from KTBN Reporting Station
Overcast Overcast  
Wind Chill: 54°   Ceiling: 11000
Heat Index: 54°   Visibility: 10mi
Dew Point: 49°   Wind: 5mph
Humidity: 82%   Direction: NA
Pressure: 30.03"   Gusts: NA
Location:  37.33°N, 91.96°W
Report Text: KTBN 200758Z AUTO VRB04KT 10SM OVC110 12/09 A3003 RMK AO2 SLP169 T01210092 $
Loading
Personal Weather Stations






























Interactive Weather Map
Tropical Storm Tracking
New forecast layout! Learn more

10-Day Weather Forecast

Advertisements
Track Severe Weather on mobile